Home > Products > Valid Products > TAF

000
FTUS44 KTSA 212300
TAFMLC
TAF
KMLC 212320Z 2200/2224 17009G14KT P6SM SKC
     FM220100 17006KT P6SM FEW250
     FM221500 19011KT P6SM FEW250=



000
FTUS44 KTSA 212300
TAFXNA
TAF
KXNA 212320Z 2200/2224 18013KT P6SM SKC
     FM220100 17006KT P6SM FEW250=



000
FTUS44 KTSA 212300
TAFFSM
TAF
KFSM 212320Z 2200/2224 18007KT P6SM SKC
     FM220300 07004KT P6SM FEW250
     FM221500 20008KT P6SM FEW250=



000
FTUS44 KTSA 212300
TAFRVS
TAF
KRVS 212320Z 2200/2224 18010G17KT P6SM FEW060
     FM220300 17006KT P6SM FEW250
     FM221500 20012KT P6SM FEW250=



000
FTUS44 KTSA 212300
TAFFYV
TAF
KFYV 212320Z 2200/2224 17012KT P6SM SKC
     FM220100 17005KT P6SM FEW250
     FM221500 20012KT P6SM FEW250=



000
FTUS44 KTSA 212300
TAFTUL
TAF
KTUL 212320Z 2200/2224 17013G23KT P6SM SCT050
     FM220400 16012KT P6SM FEW250
     FM221500 19014G23KT P6SM FEW250=



000
FTUS44 KTSA 211700
TAFTUL
TAF
KTUL 211720Z 2118/2218 17014G22KT P6SM FEW250
     FM220400 16012KT P6SM FEW250
     FM221500 19014G23KT P6SM FEW250=



000
FTUS44 KTSA 211700
TAFXNA
TAF
KXNA 211720Z 2118/2218 20012G20KT P6SM FEW250
     FM220100 17006KT P6SM FEW250=



000
FTUS44 KTSA 211700
TAFRVS
TAF
KRVS 211720Z 2118/2218 21011G18KT P6SM FEW250
     FM220300 17006KT P6SM FEW250
     FM221500 20012KT P6SM FEW250=



000
FTUS44 KTSA 211700
TAFFYV
TAF
KFYV 211720Z 2118/2218 21013KT P6SM FEW250
     FM220100 17005KT P6SM FEW250
     FM221500 20012KT P6SM FEW250=



000
FTUS44 KTSA 211700
TAFMLC
TAF
KMLC 211720Z 2118/2218 19007KT P6SM SCT030
     FM220100 17006KT P6SM FEW250
     FM221500 19011KT P6SM FEW250=



000
FTUS44 KTSA 211700
TAFFSM
TAF
KFSM 211720Z 2118/2218 21009KT P6SM SCT030
     FM220300 07004KT P6SM FEW250
     FM221500 20008KT P6SM FEW250=



000
FTUS44 KTSA 211100
TAFFYV
TAF
KFYV 211120Z 2112/2212 19007KT P6SM SKC
     FM211500 19012G19KT P6SM SCT250
     FM220100 17007KT P6SM SCT250=



000
FTUS44 KTSA 211100
TAFRVS
TAF
KRVS 211120Z 2112/2212 15004KT P6SM SKC
     FM211500 19012G21KT P6SM SCT250
     FM220300 17010KT P6SM SCT250=



000
FTUS44 KTSA 211100
TAFMLC
TAF
KMLC 211120Z 2112/2212 19007KT P6SM SKC
     FM211500 19012G19KT P6SM SCT250
     FM220100 17006KT P6SM SCT250=



000
FTUS44 KTSA 211100
TAFTUL
TAF
KTUL 211120Z 2112/2212 16008KT P6SM SKC
     FM211500 19015G25KT P6SM SCT250
     FM220400 16012KT P6SM SCT250=



000
FTUS44 KTSA 211100
TAFXNA
TAF
KXNA 211120Z 2112/2212 19006KT P6SM SKC
     FM211500 20012G21KT P6SM SCT250
     FM220100 17008KT P6SM SCT250=



000
FTUS44 KTSA 211100
TAFFSM
TAF
KFSM 211120Z 2112/2212 06004KT P6SM SKC
     FM211700 21013KT P6SM SCT250
     FM220300 07004KT P6SM SCT250=



000
FTUS44 KTSA 210500
TAFFSM
TAF
KFSM 210520Z 2106/2206 05004KT P6SM SKC
     FM211700 21013KT P6SM SCT250
     FM220100 15006KT P6SM SCT250=



000
FTUS44 KTSA 210500
TAFFYV
TAF
KFYV 210520Z 2106/2206 18010KT P6SM SKC
     FM211500 19012G20KT P6SM SCT250
     FM220100 17007KT P6SM SCT250=



000
FTUS44 KTSA 210500
TAFXNA
TAF
KXNA 210520Z 2106/2206 18011KT P6SM SKC
     FM211500 20013G22KT P6SM SCT250
     FM220100 17008KT P6SM SCT250=



000
FTUS44 KTSA 210500
TAFMLC
TAF
KMLC 210520Z 2106/2206 14006KT P6SM SKC
     FM211500 19012G19KT P6SM SCT250
     FM220100 17006KT P6SM SCT250=



000
FTUS44 KTSA 210500
TAFRVS
TAF
KRVS 210520Z 2106/2206 18011KT P6SM SKC
     FM211500 19012G21KT P6SM SCT250
     FM220300 17010KT P6SM SCT250=



000
FTUS44 KTSA 210500
TAFTUL
TAF
KTUL 210520Z 2106/2206 17015G21KT P6SM FEW250
     FM211500 19015G25KT P6SM SCT250
     FM220400 16012KT P6SM SCT250=



000
FTUS44 KTSA 202300
TAFFYV
TAF
KFYV 202331Z 2100/2124 19010KT P6SM SKC
     FM210200 16005KT P6SM SCT150
     FM211500 19012G20KT P6SM SCT250=



000
FTUS44 KTSA 202300
TAFXNA
TAF
KXNA 202331Z 2100/2124 19010KT P6SM SKC
     FM210200 16005KT P6SM SCT150
     FM211500 20012G20KT P6SM SCT250=



000
FTUS44 KTSA 202300
TAFFSM
TAF
KFSM 202331Z 2100/2124 14005KT P6SM SKC
     FM210600 08004KT P6SM SCT250
     FM211700 21010KT P6SM SCT250=



000
FTUS44 KTSA 202300
TAFMLC
TAF
KMLC 202331Z 2100/2124 16008KT P6SM SKC
     FM211500 19012G19KT P6SM SCT250=



000
FTUS44 KTSA 202300
TAFTUL
TAF
KTUL 202331Z 2100/2124 17015G21KT P6SM SKC
     FM210200 16012KT P6SM SKC
     FM211500 19015G25KT P6SM SCT250=



000
FTUS44 KTSA 202300
TAFRVS
TAF
KRVS 202331Z 2100/2124 19010KT P6SM SKC
     FM210200 17007KT P6SM SKC
     FM211500 19012G21KT P6SM SCT250=



000
FTUS44 KTSA 202100 AAA
TAFTUL
TAF AMD
KTUL 202105Z 2021/2118 16016G23KT P6SM FEW110
     FM210200 16012KT P6SM SKC
     FM211500 19015G25KT P6SM SCT250=



000
FTUS44 KTSA 201700
TAFTUL
TAF
KTUL 201724Z 2018/2118 19013G21KT P6SM FEW045 BKN080
     FM202100 19015G24KT P6SM SCT080
     FM210200 16012KT P6SM SKC
     FM211500 19015G25KT P6SM SCT250=



000
FTUS44 KTSA 201700
TAFRVS
TAF
KRVS 201724Z 2018/2118 20014G21KT P6SM SCT110
     FM210200 17007KT P6SM SKC
     FM211500 20013G21KT P6SM SCT250=



000
FTUS44 KTSA 201700
TAFXNA
TAF
KXNA 201724Z 2018/2118 20011KT P6SM SCT120
     FM210100 16005KT P6SM SCT150
     FM211500 20013KT P6SM SCT250=



000
FTUS44 KTSA 201700
TAFMLC
TAF
KMLC 201724Z 2018/2118 17005KT P6SM BKN080
     FM210000 17005KT P6SM SCT250
     FM211500 19012KT P6SM SCT250=



000
FTUS44 KTSA 201700
TAFFSM
TAF
KFSM 201724Z 2018/2118 21008KT P6SM SCT100
     FM210300 13003KT P6SM SCT250
     FM210600 08005KT P6SM SCT250
     FM211500 19008KT P6SM SCT250=



000
FTUS44 KTSA 201700
TAFFYV
TAF
KFYV 201724Z 2018/2118 21010G20KT P6SM SCT100
     FM210100 16004KT P6SM SCT150
     FM211500 20013KT P6SM SCT250=



000
FTUS44 KTSA 201200 AAA
TAFMLC
TAF AMD
KMLC 201208Z 2012/2112 19006KT P6SM VCSH BKN090 OVC110
     FM201500 20011G18KT P6SM BKN060
     FM210000 17005KT P6SM BKN200=



000
FTUS44 KTSA 201100
TAFMLC
TAF
KMLC 201120Z 2012/2112 17005KT P6SM BKN060
     FM201600 20011G18KT P6SM BKN060
     FM210000 17005KT P6SM BKN200=



000
FTUS44 KTSA 201100
TAFTUL
TAF
KTUL 201120Z 2012/2112 17011KT P6SM SCT250
     FM201600 19014G22KT P6SM SCT070
     FM210200 16012KT P6SM SKC=



000
FTUS44 KTSA 201100
TAFXNA
TAF
KXNA 201120Z 2012/2112 19004KT P6SM SCT250
     FM201600 21012G20KT P6SM SCT070
     FM210100 16005KT P6SM SCT150=



000
FTUS44 KTSA 201100
TAFFYV
TAF
KFYV 201120Z 2012/2112 VRB03KT P6SM SCT250
     FM201600 20012G19KT P6SM SCT070
     FM210100 16004KT P6SM SCT150=



000
FTUS44 KTSA 201100
TAFFSM
TAF
KFSM 201120Z 2012/2112 07003KT P6SM SCT250
     FM201600 22008KT P6SM BKN060
     FM210300 13003KT P6SM SCT200=



000
FTUS44 KTSA 201100
TAFRVS
TAF
KRVS 201120Z 2012/2112 18004KT P6SM SCT250
     FM201600 20012G19KT P6SM SCT070
     FM210200 17005KT P6SM SKC=



000
FTUS44 KTSA 200500
TAFXNA
TAF
KXNA 200520Z 2006/2106 19005KT P6SM SCT250
     FM201600 21013KT P6SM BKN130
     FM210100 16005KT P6SM SCT150=



000
FTUS44 KTSA 200500
TAFFSM
TAF
KFSM 200520Z 2006/2106 VRB03KT P6SM SCT250
     FM201700 21009KT P6SM BKN140
     FM210300 13003KT P6SM SCT200=



000
FTUS44 KTSA 200500
TAFFYV
TAF
KFYV 200520Z 2006/2106 VRB03KT P6SM SCT250
     FM201600 20012KT P6SM BKN130
     FM210100 16004KT P6SM SCT150=



000
FTUS44 KTSA 200500
TAFTUL
TAF
KTUL 200520Z 2006/2106 17011KT P6SM SCT250
     FM201500 19015KT P6SM BKN100
     FM210200 16012KT P6SM SKC=



000
FTUS44 KTSA 200500
TAFMLC
TAF
KMLC 200520Z 2006/2106 17005KT P6SM SCT250
     FM201500 20012KT P6SM BKN100
     FM210000 17005KT P6SM BKN200=



000
FTUS44 KTSA 200500
TAFRVS
TAF
KRVS 200520Z 2006/2106 18004KT P6SM SCT250
     FM201500 20012KT P6SM BKN100
     FM210200 17005KT P6SM SKC=



000
FTUS44 KTSA 200000 AAA
TAFFSM
TAF AMD
KFSM 200029Z 2000/2024 VRB03KT P6SM SCT200
     FM201700 21010KT P6SM BKN120=



000
FTUS44 KTSA 192300 CCA
TAFFSM
TAF COR
KFSM 192334Z 2000/2024 VRB03KT P6SM VCTS SCT050CB SCT200
     FM200200 VRB03KT P6SM SCT120 SCT200
     FM201700 21010KT P6SM BKN120=



000
FTUS44 KTSA 192300
TAFFSM
TAF
KFSM 192330Z 2000/2024 VRB03KT P6SM SCT050 SCT200
     FM201700 21010KT P6SM BKN120=



000
FTUS44 KTSA 192300
TAFXNA
TAF
KXNA 192330Z 2000/2024 22005KT P6SM SCT250
     FM201500 21013KT P6SM SCT120 SCT250=



000
FTUS44 KTSA 192300
TAFTUL
TAF
KTUL 192330Z 2000/2024 18010KT P6SM SCT250
     FM201500 19015KT P6SM BKN100=



000
FTUS44 KTSA 192300
TAFMLC
TAF
KMLC 192330Z 2000/2024 17006KT P6SM SCT200
     FM201500 20011KT P6SM BKN100=



000
FTUS44 KTSA 192300
TAFRVS
TAF
KRVS 192330Z 2000/2024 22005KT P6SM SCT250
     FM201500 20011KT P6SM BKN100=



000
FTUS44 KTSA 192300
TAFFYV
TAF
KFYV 192330Z 2000/2024 21004KT P6SM SCT250
     FM201500 20012KT P6SM SCT120 SCT250=



000
FTUS44 KTSA 192000 AAA
TAFTUL
TAF AMD
KTUL 192004Z 1920/2018 17008KT P6SM FEW070 SCT250
     FM200100 17010KT P6SM SCT250
     FM201500 19014KT P6SM BKN150=



000
FTUS44 KTSA 191700
TAFXNA
TAF
KXNA 191723Z 1918/2018 23008KT P6SM SCT250
     FM200100 VRB03KT P6SM SCT250
     FM201500 20011KT P6SM BKN250=



000
FTUS44 KTSA 191700
TAFFYV
TAF
KFYV 191723Z 1918/2018 23011KT P6SM SCT250
     FM200100 VRB03KT P6SM SCT250
     FM201500 20011KT P6SM BKN250=



000
FTUS44 KTSA 191700
TAFFSM
TAF
KFSM 191723Z 1918/2018 23008KT P6SM FEW250
     FM192000 21008KT P6SM SCT050
     FM200300 08003KT P6SM SCT250
     FM201500 12006KT P6SM BKN150=



000
FTUS44 KTSA 191700
TAFMLC
TAF
KMLC 191723Z 1918/2018 20008G14KT P6SM SCT250
     FM192000 19010KT P6SM SCT050
     FM200100 15005KT P6SM SCT250
     FM201400 19008KT P6SM BKN150=



000
FTUS44 KTSA 191700
TAFTUL
TAF
KTUL 191723Z 1918/2018 22007KT P6SM SCT150 SCT250
     FM192000 19012G20KT P6SM SCT050
     FM200100 17010KT P6SM SCT250
     FM201500 19014KT P6SM BKN150=



000
FTUS44 KTSA 191700
TAFRVS
TAF
KRVS 191723Z 1918/2018 21009KT P6SM SCT150 SCT250
     FM192000 19010KT P6SM SCT050
     FM200100 VRB03KT P6SM SCT250
     FM201500 19012KT P6SM BKN150=



000
FTUS44 KTSA 191100
TAFFSM
TAF
KFSM 191120Z 1912/2012 00000KT P6SM SCT250
     FM191500 23007KT P6SM SCT150
     FM200300 08003KT P6SM SCT250=



000
FTUS44 KTSA 191100
TAFMLC
TAF
KMLC 191120Z 1912/2012 22006KT P6SM SCT250
     FM191500 19009KT P6SM SCT250
     FM200100 15005KT P6SM SCT250=



000
FTUS44 KTSA 191100
TAFXNA
TAF
KXNA 191120Z 1912/2012 22005KT P6SM FEW150 SCT250
     FM191500 22010KT P6SM SCT150
     FM200100 VRB03KT P6SM SCT250=



000
FTUS44 KTSA 191100
TAFRVS
TAF
KRVS 191120Z 1912/2012 00000KT P6SM FEW150 BKN250
     FM191500 23008KT P6SM SCT250
     FM191900 19010KT P6SM SCT050
     FM200100 VRB03KT P6SM SCT250=



000
FTUS44 KTSA 191100
TAFFYV
TAF
KFYV 191120Z 1912/2012 21006KT P6SM FEW150 SCT250
     FM191500 22009KT P6SM SCT150
     FM200100 VRB03KT P6SM SCT250=



000
FTUS44 KTSA 191100
TAFTUL
TAF
KTUL 191120Z 1912/2012 32003KT P6SM FEW150 OVC250
     FM191500 22010KT P6SM SCT250
     FM192000 19012G20KT P6SM SCT050
     FM200100 17010KT P6SM SCT250=



000
FTUS44 KTSA 190500
TAFMLC
TAF
KMLC 190520Z 1906/2006 16005KT P6SM BKN150
     FM191500 19009KT P6SM SCT250
     FM200100 15005KT P6SM SCT250=



000
FTUS44 KTSA 190500
TAFRVS
TAF
KRVS 190520Z 1906/2006 17007KT P6SM BKN250
     FM191500 23008KT P6SM SCT250
     FM191900 19010KT P6SM SCT050
     FM200100 VRB03KT P6SM SCT250=



000
FTUS44 KTSA 190500
TAFXNA
TAF
KXNA 190520Z 1906/2006 19004KT P6SM BKN250
     FM191500 22010KT P6SM SCT150
     FM200100 VRB03KT P6SM SCT250=



000
FTUS44 KTSA 190500
TAFTUL
TAF
KTUL 190520Z 1906/2006 14011KT P6SM BKN150
     FM191500 22010KT P6SM SCT250
     FM192000 19012G20KT P6SM SCT050
     FM200100 17010KT P6SM SCT250=



000
FTUS44 KTSA 190500
TAFFYV
TAF
KFYV 190520Z 1906/2006 17003KT P6SM BKN250
     FM191500 22009KT P6SM SCT150
     FM200100 VRB03KT P6SM SCT250=



000
FTUS44 KTSA 190500
TAFFSM
TAF
KFSM 190520Z 1906/2006 08003KT P6SM BKN250
     FM191500 23007KT P6SM SCT150
     FM200100 21004KT P6SM SCT250=



    US Dept of Commerce
    National Oceanic and Atmospheric Administration
    National Weather Service
    1325 East West Highway
    Silver Spring, MD 20910
    Page Author: NWS Internet Services Team
Disclaimer
Information Quality
Credits
Glossary
Privacy Policy
Freedom of Information Act (FOIA)
About Us
Career Opportunities